El Dorado International Airport
SKBO : rendu visible

Aérodrome :











RETROUVEZ-NOUS SUR...

 
LOGIN :

S'inscrire | Disclaimer

   EN    FR    IT 

 









Légende :    VFR   VFR Marginal   IFR   IFR Intensif   IFR Très Intensif
Visi : 
Plafond : 
>= 8 km
>= 3000ft
5 à 8 km
1000 à 3000 ft
1500m à 5 km
500 à 1000 ft
800 à 1500m
200 à 500 ft
< 800m
< 200 ft
Symboles :   Orages  Brouillard  Fortes neiges  Fortes précipitations  Vent > 20 kt






- Altitude de l'aérodrome : 8361 ft
- Code IATA : BOG


SKBO - El Dorado International

DERNIER METAR :
  • 281700Z 31005KT 9999 FEW020 20/08 A3036 NOSIG

METARs EXPIRÉS :
  • 281600Z 31007KT 9999 SCT017 18/11 A3039 NOSIG
  • 281500Z VRB02KT 9999 FEW017 15/13 A3040 NOSIG

TAF TAF SKBO
Valide du 28 à 18h jusqu'au 29 à 18h UTC


281630Z 2818/2918 29007KT 9999 SCT017 SCT080
BECMG 2819/2821 VRB02KT
PROB40
TEMPO 2821/2901 VCTS SCT015CB
PROB40
TEMPO 2909/2912 5000 VCFG SCT012
TEMPO 2911/2912 0500 FG VV///
BECMG 2913/2915 9999 SCT015 TX21/2818Z TN09/2911Z



MET'MAP, la Météo Aéronautique d'un coup d'oeil ! - Copyright ORBIFLY Décembre 2007 - Disclaimer

ORBIFLY MET'MAP TEAM :

Programmation & Développement : Alexandra Zaïnal
Sur une idée originale de : Baudouin d'Aumeries
Assistance à la programmation : Marc-Olivier Méhu
Soutien technique & logistique : Manuel Goepfert

Contact : metmap@orbifly.com




SOURCES & CREDITS :

   NOAA       Earth
Advisory